createdAt,value
2018-10-03T00:01:23.902Z,100153.00
2018-10-03T00:03:54.192Z,100153.00
2018-10-03T00:06:25.533Z,100155.00
2018-10-03T00:08:57.555Z,100166.00
2018-10-03T00:11:30.505Z,100165.00
2018-10-03T00:14:00.372Z,100162.00
2018-10-03T00:16:29.895Z,100174.00
2018-10-03T00:18:59.237Z,100174.00
2018-10-03T00:21:30.090Z,100182.00
2018-10-03T00:24:01.643Z,100181.00
2018-10-03T00:26:31.212Z,100189.00
2018-10-03T00:29:00.737Z,100195.00
2018-10-03T00:31:30.173Z,100195.00
2018-10-03T00:34:00.013Z,100193.00
2018-10-03T00:36:29.418Z,100190.00
2018-10-03T00:38:59.136Z,100187.00
2018-10-03T00:41:29.462Z,100191.00
2018-10-03T00:43:59.040Z,100201.00
2018-10-03T00:46:28.587Z,100196.00
2018-10-03T00:49:01.810Z,100193.00
2018-10-03T00:51:31.349Z,100199.00
2018-10-03T00:54:00.838Z,100202.00
2018-10-03T00:56:30.593Z,100215.00
2018-10-03T00:59:00.294Z,100209.00
2018-10-03T01:01:30.053Z,100210.00
2018-10-03T01:03:59.672Z,100208.00
2018-10-03T01:06:32.281Z,100215.00
2018-10-03T01:09:01.785Z,100219.00
2018-10-03T01:11:35.213Z,100218.00
2018-10-03T01:14:04.612Z,100212.00
2018-10-03T01:16:34.965Z,100221.00
2018-10-03T01:19:06.154Z,100219.00
2018-10-03T01:21:36.002Z,100217.00
2018-10-03T01:24:06.215Z,100207.00
2018-10-03T01:26:35.677Z,100219.00
2018-10-03T01:29:05.915Z,100223.00
2018-10-03T01:31:35.945Z,100222.00
2018-10-03T01:34:05.617Z,100230.00
2018-10-03T01:36:35.434Z,100235.00
2018-10-03T01:39:09.425Z,100236.00
2018-10-03T01:41:39.614Z,100234.00
2018-10-03T01:44:11.275Z,100234.00
2018-10-03T01:46:40.754Z,100239.00
2018-10-03T01:49:11.088Z,100239.00
2018-10-03T01:51:41.136Z,100237.00
2018-10-03T01:54:10.840Z,100229.00
2018-10-03T01:56:42.695Z,100235.00
2018-10-03T01:59:12.802Z,100232.00
2018-10-03T02:01:42.269Z,100230.00
2018-10-03T02:04:12.059Z,100240.00
2018-10-03T02:06:41.884Z,100247.00
2018-10-03T02:09:11.409Z,100249.00
2018-10-03T02:11:40.819Z,100250.00
2018-10-03T02:14:10.216Z,100241.00
2018-10-03T02:16:39.809Z,100252.00
2018-10-03T02:19:09.632Z,100246.00
2018-10-03T02:21:40.023Z,100246.00
2018-10-03T02:24:10.849Z,100247.00
2018-10-03T02:26:40.547Z,100256.00
2018-10-03T02:29:10.278Z,100257.00
2018-10-03T02:31:40.118Z,100258.00
2018-10-03T02:34:09.866Z,100261.00
2018-10-03T02:36:39.426Z,100251.00
2018-10-03T02:39:10.166Z,100251.00
2018-10-03T02:41:39.861Z,100255.00
2018-10-03T02:44:11.365Z,100254.00
2018-10-03T02:46:41.449Z,100262.00
2018-10-03T02:49:12.050Z,100262.00
2018-10-03T02:51:41.643Z,100265.00
2018-10-03T02:54:13.647Z,100272.00
2018-10-03T02:56:43.724Z,100279.00
2018-10-03T02:59:14.992Z,100280.00
2018-10-03T03:01:44.606Z,100283.00
2018-10-03T03:04:14.387Z,100292.00
2018-10-03T03:06:44.599Z,100288.00
2018-10-03T03:09:15.683Z,100300.00
2018-10-03T03:11:45.244Z,100299.00
2018-10-03T03:14:17.581Z,100309.00
2018-10-03T03:16:48.151Z,100313.00
2018-10-03T03:19:17.621Z,100323.00
2018-10-03T03:21:49.379Z,100321.00
2018-10-03T03:24:19.058Z,100325.00
2018-10-03T03:26:48.757Z,100322.00
2018-10-03T03:29:18.109Z,100325.00
2018-10-03T03:31:48.402Z,100333.00
2018-10-03T03:34:24.783Z,100338.00
2018-10-03T03:36:54.267Z,100337.00
2018-10-03T03:39:23.865Z,100338.00
2018-10-03T03:41:55.062Z,100349.00
2018-10-03T03:44:24.841Z,100348.00
2018-10-03T03:46:54.304Z,100351.00
2018-10-03T03:49:23.755Z,100347.00
2018-10-03T03:51:53.102Z,100352.00
2018-10-03T03:54:22.545Z,100351.00
2018-10-03T03:56:51.884Z,100351.00
2018-10-03T03:59:21.122Z,100363.00
2018-10-03T04:01:50.726Z,100351.00
2018-10-03T04:04:21.279Z,100354.00
2018-10-03T04:06:53.401Z,100355.00
2018-10-03T04:09:23.382Z,100351.00
2018-10-03T04:11:52.906Z,100354.00
2018-10-03T04:14:24.605Z,100352.00
2018-10-03T04:16:55.234Z,100349.00
2018-10-03T04:19:26.334Z,100354.00
2018-10-03T04:21:56.854Z,100354.00
2018-10-03T04:29:26.049Z,100361.00
2018-10-03T04:34:33.056Z,100370.00
2018-10-03T04:37:02.281Z,100373.00
2018-10-03T04:39:31.535Z,100382.00
2018-10-03T04:42:00.818Z,100384.00
2018-10-03T04:44:29.986Z,100383.00
2018-10-03T04:46:59.472Z,100388.00
2018-10-03T04:49:28.941Z,100380.00
2018-10-03T04:51:58.324Z,100385.00
2018-10-03T04:54:27.879Z,100395.00
2018-10-03T04:56:57.254Z,100400.00
2018-10-03T04:59:27.152Z,100400.00
2018-10-03T05:01:56.921Z,100406.00
2018-10-03T05:04:26.294Z,100417.00
2018-10-03T05:06:55.878Z,100416.00
2018-10-03T05:09:25.099Z,100420.00
2018-10-03T05:11:54.534Z,100422.00
2018-10-03T05:14:23.633Z,100416.00
2018-10-03T05:16:53.014Z,100425.00
2018-10-03T05:19:23.137Z,100427.00
2018-10-03T05:21:52.738Z,100438.00
2018-10-03T05:24:22.107Z,100431.00
2018-10-03T05:26:51.583Z,100435.00
2018-10-03T05:29:21.325Z,100446.00
2018-10-03T05:31:50.799Z,100453.00
2018-10-03T05:34:20.089Z,100459.00
2018-10-03T05:36:49.300Z,100464.00
2018-10-03T05:39:18.570Z,100457.00
2018-10-03T05:41:47.953Z,100454.00
2018-10-03T05:44:18.227Z,100459.00
2018-10-03T05:46:48.004Z,100460.00
2018-10-03T05:49:17.469Z,100464.00
2018-10-03T05:51:49.695Z,100466.00
2018-10-03T05:54:19.089Z,100471.00
2018-10-03T05:56:48.303Z,100475.00
2018-10-03T05:59:17.545Z,100483.00
2018-10-03T06:01:46.811Z,100489.00
2018-10-03T06:04:16.013Z,100484.00
2018-10-03T06:06:45.244Z,100480.00
2018-10-03T06:09:14.601Z,100478.00
2018-10-03T06:11:44.602Z,100482.00
2018-10-03T06:14:13.922Z,100481.00
2018-10-03T06:16:44.370Z,100478.00
2018-10-03T06:19:14.302Z,100478.00
2018-10-03T06:21:43.892Z,100482.00
2018-10-03T06:24:13.250Z,100495.00
2018-10-03T06:26:42.575Z,100497.00
2018-10-03T06:29:12.020Z,100506.00
2018-10-03T06:31:41.522Z,100517.00
2018-10-03T06:34:11.008Z,100515.00
2018-10-03T06:36:40.208Z,100528.00
2018-10-03T06:39:10.843Z,100540.00
2018-10-03T06:41:41.335Z,100540.00
2018-10-03T06:44:11.360Z,100552.00
2018-10-03T06:46:41.759Z,100563.00
2018-10-03T06:49:11.929Z,100567.00
2018-10-03T06:51:41.274Z,100562.00
2018-10-03T06:54:10.588Z,100561.00
2018-10-03T06:56:39.933Z,100572.00
2018-10-03T06:59:09.232Z,100572.00
2018-10-03T07:01:38.470Z,100568.00
2018-10-03T07:04:07.754Z,100569.00
2018-10-03T07:06:36.946Z,100576.00
2018-10-03T07:09:08.283Z,100585.00
2018-10-03T07:11:37.831Z,100585.00
2018-10-03T07:14:07.473Z,100579.00
2018-10-03T07:16:36.676Z,100596.00
2018-10-03T07:19:05.805Z,100605.00
2018-10-03T07:21:35.200Z,100616.00
2018-10-03T07:24:04.680Z,100613.00
2018-10-03T07:26:34.128Z,100610.00
2018-10-03T07:29:03.400Z,100615.00
2018-10-03T07:31:32.689Z,100622.00
2018-10-03T07:34:02.003Z,100622.00
2018-10-03T07:36:31.507Z,100626.00
2018-10-03T07:39:00.724Z,100634.00
2018-10-03T07:41:30.063Z,100628.00
2018-10-03T07:43:59.415Z,100631.00
2018-10-03T07:49:06.649Z,100645.00
2018-10-03T07:54:19.711Z,100626.00
2018-10-03T07:56:49.136Z,100632.00
2018-10-03T07:59:18.357Z,100638.00
2018-10-03T08:01:47.610Z,100644.00
2018-10-03T08:04:16.861Z,100645.00
2018-10-03T08:06:46.398Z,100649.00
2018-10-03T08:09:16.352Z,100644.00
2018-10-03T08:11:45.767Z,100653.00
2018-10-03T08:14:15.469Z,100662.00
2018-10-03T08:16:44.820Z,100668.00
2018-10-03T08:19:14.232Z,100667.00
2018-10-03T08:21:43.817Z,100673.00
2018-10-03T08:24:13.297Z,100671.00
2018-10-03T08:26:47.690Z,100679.00
2018-10-03T08:29:19.113Z,100681.00
2018-10-03T08:31:52.554Z,100686.00
2018-10-03T08:34:22.405Z,100695.00
2018-10-03T08:36:51.702Z,100696.00
2018-10-03T08:39:20.933Z,100700.00
2018-10-03T08:41:50.212Z,100699.00
2018-10-03T08:44:19.667Z,100710.00
2018-10-03T08:46:49.769Z,100718.00
2018-10-03T08:49:19.243Z,100721.00
2018-10-03T08:51:48.494Z,100727.00
2018-10-03T08:54:17.874Z,100727.00
2018-10-03T08:56:47.217Z,100729.00
2018-10-03T08:59:16.922Z,100730.00
2018-10-03T09:01:46.419Z,100722.00
2018-10-03T09:04:16.013Z,100732.00
2018-10-03T09:06:46.524Z,100732.00
2018-10-03T09:09:16.127Z,100734.00
2018-10-03T09:11:45.744Z,100737.00
2018-10-03T09:14:15.321Z,100740.00
2018-10-03T09:16:44.998Z,100738.00
2018-10-03T09:19:15.064Z,100744.00
2018-10-03T09:21:45.064Z,100740.00
2018-10-03T09:24:14.485Z,100736.00
2018-10-03T09:26:44.190Z,100741.00
2018-10-03T09:29:14.515Z,100745.00
2018-10-03T09:31:44.320Z,100752.00
2018-10-03T09:34:14.218Z,100754.00
2018-10-03T09:36:44.567Z,100747.00
2018-10-03T09:39:14.470Z,100757.00
2018-10-03T09:41:43.814Z,100762.00
2018-10-03T09:44:13.525Z,100759.00
2018-10-03T09:46:43.785Z,100759.00
2018-10-03T09:49:13.203Z,100755.00
2018-10-03T09:51:42.777Z,100759.00
2018-10-03T09:54:12.460Z,100766.00
2018-10-03T09:56:42.278Z,100765.00
2018-10-03T09:59:11.972Z,100773.00
2018-10-03T10:01:41.468Z,100774.00
2018-10-03T10:04:11.081Z,100776.00
2018-10-03T10:06:40.445Z,100769.00
2018-10-03T10:09:10.939Z,100773.00
2018-10-03T10:11:40.689Z,100774.00
2018-10-03T10:14:10.013Z,100777.00
2018-10-03T10:16:39.521Z,100780.00
2018-10-03T10:19:08.951Z,100779.00
2018-10-03T10:21:39.703Z,100784.00
2018-10-03T10:24:09.005Z,100781.00
2018-10-03T10:26:38.246Z,100781.00
2018-10-03T10:29:07.506Z,100780.00
2018-10-03T10:31:36.877Z,100785.00
2018-10-03T10:34:06.148Z,100780.00
2018-10-03T10:36:35.433Z,100789.00
2018-10-03T10:39:07.485Z,100782.00
2018-10-03T10:41:37.312Z,100789.00
2018-10-03T10:44:06.520Z,100787.00
2018-10-03T10:46:36.124Z,100792.00
2018-10-03T10:49:05.319Z,100787.00
2018-10-03T10:51:34.815Z,100798.00
2018-10-03T10:54:04.097Z,100799.00
2018-10-03T10:56:33.278Z,100808.00
2018-10-03T10:59:02.635Z,100813.00
2018-10-03T11:01:35.120Z,100798.00
2018-10-03T11:04:04.294Z,100809.00
2018-10-03T11:06:33.672Z,100816.00
2018-10-03T11:09:08.798Z,100812.00
2018-10-03T11:11:38.280Z,100804.00
2018-10-03T11:14:07.578Z,100804.00
2018-10-03T11:16:36.920Z,100802.00
2018-10-03T11:19:06.065Z,100808.00
2018-10-03T11:21:35.374Z,100809.00
2018-10-03T11:24:05.271Z,100817.00
2018-10-03T11:26:34.715Z,100818.00
2018-10-03T11:29:04.661Z,100810.00
2018-10-03T11:31:34.114Z,100815.00
2018-10-03T11:34:03.408Z,100817.00
2018-10-03T11:36:33.115Z,100805.00
2018-10-03T11:39:02.630Z,100805.00
2018-10-03T11:41:31.905Z,100799.00
2018-10-03T11:44:01.298Z,100797.00
2018-10-03T11:46:31.545Z,100793.00
2018-10-03T11:49:00.915Z,100797.00
2018-10-03T11:51:30.358Z,100794.00
2018-10-03T11:53:59.679Z,100793.00
2018-10-03T11:56:29.303Z,100796.00
2018-10-03T11:58:58.570Z,100798.00
2018-10-03T12:01:27.920Z,100801.00
2018-10-03T12:03:57.828Z,100797.00
2018-10-03T12:06:27.255Z,100795.00
2018-10-03T12:08:56.704Z,100794.00
2018-10-03T12:11:26.172Z,100800.00
2018-10-03T12:13:55.799Z,100798.00
2018-10-03T12:16:25.651Z,100783.00
2018-10-03T12:18:55.108Z,100787.00
2018-10-03T12:21:24.847Z,100790.00
2018-10-03T12:23:54.277Z,100800.00
2018-10-03T12:26:24.158Z,100793.00
2018-10-03T12:28:53.819Z,100796.00
2018-10-03T12:31:23.743Z,100794.00
2018-10-03T12:33:53.992Z,100795.00
2018-10-03T12:36:23.708Z,100796.00
2018-10-03T12:38:53.670Z,100798.00
2018-10-03T12:41:23.350Z,100800.00
2018-10-03T12:43:53.536Z,100794.00
2018-10-03T12:46:23.565Z,100787.00
2018-10-03T12:48:54.132Z,100788.00
2018-10-03T12:51:23.760Z,100789.00
2018-10-03T12:53:53.857Z,100796.00
2018-10-03T12:56:24.253Z,100788.00
2018-10-03T12:58:54.371Z,100785.00
2018-10-03T13:01:24.163Z,100786.00
2018-10-03T13:03:53.872Z,100789.00
2018-10-03T13:06:23.708Z,100784.00
2018-10-03T13:08:53.166Z,100782.00
2018-10-03T13:11:23.188Z,100790.00
2018-10-03T13:13:53.276Z,100786.00
2018-10-03T13:16:23.094Z,100783.00
2018-10-03T13:18:52.820Z,100786.00
2018-10-03T13:21:22.306Z,100780.00
2018-10-03T13:23:51.894Z,100783.00
2018-10-03T13:26:21.402Z,100785.00
2018-10-03T13:28:51.249Z,100787.00
2018-10-03T13:31:21.172Z,100793.00
2018-10-03T13:33:50.769Z,100787.00
2018-10-03T13:36:20.178Z,100787.00
2018-10-03T13:38:50.054Z,100784.00
2018-10-03T13:41:19.604Z,100786.00
2018-10-03T13:43:49.223Z,100783.00
2018-10-03T13:46:19.054Z,100786.00
2018-10-03T13:48:49.912Z,100789.00
2018-10-03T13:51:20.871Z,100789.00
2018-10-03T13:53:50.486Z,100787.00
2018-10-03T13:59:04.411Z,100787.00
2018-10-03T14:01:33.761Z,100781.00
2018-10-03T14:04:03.173Z,100777.00
2018-10-03T14:06:33.271Z,100779.00
2018-10-03T14:09:03.778Z,100780.00
2018-10-03T14:11:33.453Z,100786.00
2018-10-03T14:14:04.121Z,100786.00
2018-10-03T14:19:10.399Z,100786.00
2018-10-03T14:21:41.543Z,100778.00
2018-10-03T14:24:13.966Z,100772.00
2018-10-03T14:26:44.410Z,100771.00
2018-10-03T14:29:14.821Z,100773.00
2018-10-03T14:31:44.777Z,100763.00
2018-10-03T14:34:14.250Z,100760.00
2018-10-03T14:36:44.466Z,100761.00
2018-10-03T14:39:14.237Z,100760.00
2018-10-03T14:41:44.207Z,100764.00
2018-10-03T14:44:13.771Z,100762.00
2018-10-03T14:46:43.647Z,100763.00
2018-10-03T14:49:13.025Z,100766.00
2018-10-03T14:51:42.503Z,100770.00
2018-10-03T14:54:12.033Z,100773.00
2018-10-03T14:56:41.669Z,100772.00
2018-10-03T14:59:11.143Z,100768.00
2018-10-03T15:01:40.721Z,100777.00
2018-10-03T15:04:10.199Z,100780.00
2018-10-03T15:06:39.901Z,100780.00
2018-10-03T15:09:10.901Z,100779.00
2018-10-03T15:11:40.830Z,100773.00
2018-10-03T15:14:10.332Z,100774.00
2018-10-03T15:16:39.965Z,100774.00
2018-10-03T15:19:09.245Z,100779.00
2018-10-03T15:21:38.427Z,100775.00
2018-10-03T15:24:07.754Z,100777.00
2018-10-03T15:26:37.190Z,100776.00
2018-10-03T15:29:07.018Z,100775.00
2018-10-03T15:31:37.481Z,100766.00
2018-10-03T15:34:06.692Z,100767.00
2018-10-03T15:36:36.109Z,100771.00
2018-10-03T15:39:06.487Z,100772.00
2018-10-03T15:41:35.934Z,100774.00
2018-10-03T15:44:05.623Z,100775.00
2018-10-03T15:46:35.537Z,100768.00
2018-10-03T15:49:04.900Z,100776.00
2018-10-03T15:51:34.198Z,100781.00
2018-10-03T15:54:03.529Z,100784.00
2018-10-03T15:56:32.827Z,100782.00
2018-10-03T15:59:02.179Z,100780.00
2018-10-03T16:01:31.696Z,100788.00
2018-10-03T16:04:01.174Z,100785.00
2018-10-03T16:06:31.683Z,100786.00
2018-10-03T16:09:01.893Z,100793.00
2018-10-03T16:11:31.276Z,100791.00
2018-10-03T16:14:00.706Z,100795.00
2018-10-03T16:16:30.177Z,100794.00
2018-10-03T16:18:59.677Z,100789.00
2018-10-03T16:21:29.170Z,100797.00
2018-10-03T16:23:58.638Z,100805.00
2018-10-03T16:26:28.043Z,100804.00
2018-10-03T16:28:57.522Z,100803.00
2018-10-03T16:31:26.792Z,100808.00
2018-10-03T16:33:56.086Z,100810.00
2018-10-03T16:36:25.515Z,100815.00
2018-10-03T16:38:54.984Z,100804.00
2018-10-03T16:41:24.091Z,100810.00
2018-10-03T16:43:53.379Z,100813.00
2018-10-03T16:46:22.915Z,100812.00
2018-10-03T16:48:52.390Z,100824.00
2018-10-03T16:51:21.822Z,100824.00
2018-10-03T16:53:51.255Z,100827.00
2018-10-03T16:56:20.704Z,100830.00
2018-10-03T17:01:26.852Z,100835.00
2018-10-03T17:03:56.278Z,100834.00
2018-10-03T17:06:25.746Z,100845.00
2018-10-03T17:08:55.192Z,100846.00
2018-10-03T17:11:24.741Z,100851.00
2018-10-03T17:14:17.376Z,100849.00
2018-10-03T17:19:22.486Z,100858.00
2018-10-03T17:21:52.397Z,100856.00
2018-10-03T17:24:23.193Z,100858.00
2018-10-03T17:26:52.616Z,100854.00
2018-10-03T17:29:22.053Z,100856.00
2018-10-03T17:31:51.492Z,100860.00
2018-10-03T17:34:20.717Z,100864.00
2018-10-03T17:36:51.387Z,100863.00
2018-10-03T17:39:21.514Z,100868.00
2018-10-03T17:41:51.062Z,100870.00
2018-10-03T17:44:24.153Z,100868.00
2018-10-03T17:46:54.833Z,100872.00
2018-10-03T17:49:24.090Z,100877.00
2018-10-03T17:51:53.859Z,100876.00
2018-10-03T17:54:23.071Z,100880.00
2018-10-03T17:56:52.414Z,100882.00
2018-10-03T17:59:21.647Z,100882.00
2018-10-03T18:01:52.811Z,100889.00
2018-10-03T18:04:21.971Z,100893.00
2018-10-03T18:06:51.486Z,100893.00
2018-10-03T18:09:20.829Z,100896.00
2018-10-03T18:11:50.234Z,100901.00
2018-10-03T18:14:19.661Z,100904.00
2018-10-03T18:16:49.277Z,100905.00
2018-10-03T18:19:18.566Z,100903.00
2018-10-03T18:21:48.347Z,100901.00
2018-10-03T18:24:17.521Z,100899.00
2018-10-03T18:26:46.850Z,100905.00
2018-10-03T18:29:16.296Z,100909.00
2018-10-03T18:31:45.688Z,100910.00
2018-10-03T18:34:14.850Z,100915.00
2018-10-03T18:36:44.465Z,100914.00
2018-10-03T18:39:14.573Z,100919.00
2018-10-03T18:41:44.748Z,100918.00
2018-10-03T18:44:14.342Z,100919.00
2018-10-03T18:46:43.657Z,100915.00
2018-10-03T18:49:13.322Z,100917.00
2018-10-03T18:51:42.778Z,100912.00
2018-10-03T18:54:12.014Z,100915.00
2018-10-03T18:56:41.416Z,100911.00
2018-10-03T18:59:10.757Z,100914.00
2018-10-03T19:01:40.804Z,100917.00
2018-10-03T19:04:10.094Z,100919.00
2018-10-03T19:06:40.264Z,100917.00
2018-10-03T19:09:10.749Z,100914.00
2018-10-03T19:11:40.304Z,100919.00
2018-10-03T19:14:10.120Z,100924.00
2018-10-03T19:16:40.682Z,100922.00
2018-10-03T19:19:15.159Z,100924.00
2018-10-03T19:21:49.254Z,100930.00
2018-10-03T19:24:20.560Z,100929.00
2018-10-03T19:26:51.511Z,100933.00
2018-10-03T19:29:23.681Z,100930.00
2018-10-03T19:34:28.653Z,100935.00
2018-10-03T19:36:57.976Z,100937.00
2018-10-03T19:39:27.213Z,100944.00
2018-10-03T19:41:56.826Z,100941.00
2018-10-03T19:44:26.136Z,100942.00
2018-10-03T19:46:55.576Z,100944.00
2018-10-03T19:49:25.736Z,100938.00
2018-10-03T19:51:55.929Z,100934.00
2018-10-03T19:54:25.192Z,100939.00
2018-10-03T19:56:54.550Z,100935.00
2018-10-03T19:59:23.632Z,100936.00
2018-10-03T20:01:52.881Z,100939.00
2018-10-03T20:04:26.197Z,100935.00
2018-10-03T20:06:56.040Z,100936.00
2018-10-03T20:09:25.364Z,100934.00
2018-10-03T20:11:54.713Z,100931.00
2018-10-03T20:14:23.793Z,100936.00
2018-10-03T20:16:52.999Z,100940.00
2018-10-03T20:19:22.300Z,100943.00
2018-10-03T20:21:54.172Z,100940.00
2018-10-03T20:24:23.326Z,100947.00
2018-10-03T20:26:53.454Z,100949.00
2018-10-03T20:29:22.659Z,100946.00
2018-10-03T20:31:53.502Z,100951.00
2018-10-03T20:34:22.709Z,100950.00
2018-10-03T20:36:54.725Z,100948.00
2018-10-03T20:44:27.029Z,100947.00
2018-10-03T20:46:59.051Z,100948.00
2018-10-03T20:49:28.348Z,100955.00
2018-10-03T20:51:57.402Z,100956.00
2018-10-03T20:54:26.691Z,100954.00
2018-10-03T20:56:57.345Z,100958.00
2018-10-03T20:59:26.688Z,100962.00
2018-10-03T21:01:55.833Z,100953.00
2018-10-03T21:04:25.305Z,100954.00
2018-10-03T21:06:54.645Z,100950.00
2018-10-03T21:09:23.800Z,100951.00
2018-10-03T21:11:53.346Z,100961.00
2018-10-03T21:14:22.766Z,100956.00
2018-10-03T21:16:53.107Z,100959.00
2018-10-03T21:19:23.441Z,100958.00
2018-10-03T21:21:52.744Z,100953.00
2018-10-03T21:24:21.914Z,100955.00
2018-10-03T21:26:51.264Z,100957.00
2018-10-03T21:29:20.642Z,100955.00
2018-10-03T21:34:59.098Z,100962.00
2018-10-03T21:37:28.269Z,100967.00
2018-10-03T21:39:57.421Z,100962.00
2018-10-03T21:42:26.508Z,100965.00
2018-10-03T21:44:55.721Z,100961.00
2018-10-03T21:47:24.888Z,100967.00
2018-10-03T21:49:54.102Z,100970.00
2018-10-03T21:52:23.092Z,100972.00
2018-10-03T21:54:52.164Z,100971.00
2018-10-03T21:57:21.932Z,100964.00
2018-10-03T21:59:51.923Z,100968.00
2018-10-03T22:02:22.005Z,100960.00
2018-10-03T22:04:51.152Z,100965.00
2018-10-03T22:07:20.242Z,100968.00
2018-10-03T22:09:49.548Z,100968.00
2018-10-03T22:12:18.629Z,100964.00
2018-10-03T22:14:47.867Z,100961.00
2018-10-03T22:17:23.502Z,100954.00
2018-10-03T22:19:53.765Z,100961.00
2018-10-03T22:22:23.069Z,100963.00
2018-10-03T22:24:52.666Z,100960.00
2018-10-03T22:27:21.782Z,100960.00
2018-10-03T22:29:51.990Z,100956.00
2018-10-03T22:32:21.140Z,100959.00
2018-10-03T22:34:50.409Z,100956.00
2018-10-03T22:37:19.583Z,100949.00
2018-10-03T22:39:48.636Z,100949.00
2018-10-03T22:42:17.893Z,100954.00
2018-10-03T22:44:48.110Z,100956.00
2018-10-03T22:47:18.280Z,100957.00
2018-10-03T22:49:48.527Z,100961.00
2018-10-03T22:52:18.029Z,100956.00
2018-10-03T22:54:47.032Z,100955.00
2018-10-03T22:57:16.193Z,100948.00
2018-10-03T22:59:45.307Z,100949.00
2018-10-03T23:02:14.417Z,100950.00
2018-10-03T23:04:43.485Z,100948.00
2018-10-03T23:07:12.716Z,100956.00
2018-10-03T23:09:42.021Z,100951.00
2018-10-03T23:12:11.335Z,100952.00
2018-10-03T23:14:40.556Z,100952.00
2018-10-03T23:17:09.660Z,100955.00
2018-10-03T23:19:38.721Z,100957.00
2018-10-03T23:22:07.771Z,100955.00
2018-10-03T23:24:36.817Z,100953.00
2018-10-03T23:27:05.975Z,100953.00
2018-10-03T23:29:35.056Z,100953.00
2018-10-03T23:32:04.080Z,100954.00
2018-10-03T23:34:33.167Z,100953.00
2018-10-03T23:37:02.258Z,100955.00
2018-10-03T23:39:31.315Z,100952.00
2018-10-03T23:42:00.324Z,100956.00
2018-10-03T23:44:29.411Z,100953.00
2018-10-03T23:46:58.493Z,100949.00
2018-10-03T23:49:27.500Z,100956.00
2018-10-03T23:51:56.785Z,100959.00
2018-10-03T23:54:25.851Z,100962.00
2018-10-03T23:56:54.932Z,100965.00
2018-10-03T23:59:24.093Z,100963.00
